Time;durP1;ratioP1;P1;durP2;ratioP2;P2;SDS_P1;SDS_P2;PMS_P1;PMS_P2;Temp;Humidity;BMP_temperature;BMP_pressure;BME280_temperature;BME280_humidity;BME280_pressure;Samples;Min_cycle;Max_cycle;Signal;HPM_P1;HPM_P2
2023/09/29 00:00:54;;;;;;;12.43;4.35;;;;;;;17.80;85.80;101302.44;3614546;39;20088;-66
2023/09/29 00:03:19;;;;;;;9.05;3.65;;;;;;;17.86;85.66;101308.22;3617271;39;20091;-68
2023/09/29 00:05:46;;;;;;;10.57;4.07;;;;;;;17.78;86.15;101291.69;3619437;39;20054;-65
2023/09/29 00:08:16;;;;;;;14.20;4.47;;;;;;;17.93;85.83;101313.13;3615808;39;20040;-66
2023/09/29 00:10:45;;;;;;;11.77;4.28;;;;;;;17.92;85.37;101316.81;3615878;39;20046;-66
2023/09/29 00:13:12;;;;;;;9.52;4.10;;;;;;;17.86;85.84;101304.63;3617793;39;20332;-66
2023/09/29 00:15:38;;;;;;;10.10;4.32;;;;;;;17.92;85.72;101311.38;3610455;39;20049;-66
2023/09/29 00:18:09;;;;;;;15.02;4.70;;;;;;;17.92;85.53;101316.81;3616906;39;20061;-66
2023/09/29 00:20:35;;;;;;;11.23;4.68;;;;;;;17.92;86.04;101312.28;3611922;39;20061;-67
2023/09/29 00:23:02;;;;;;;9.63;4.10;;;;;;;17.93;86.25;101307.69;3616874;39;20062;-66
2023/09/29 00:25:29;;;;;;;11.25;4.40;;;;;;;17.95;85.50;101303.84;3618247;39;20051;-65
2023/09/29 00:27:57;;;;;;;10.07;4.13;;;;;;;18.00;86.05;101304.31;3618201;39;20043;-66
2023/09/29 00:30:23;;;;;;;8.55;3.90;;;;;;;18.02;85.77;101313.22;3618172;39;20039;-66
2023/09/29 00:32:53;;;;;;;10.50;3.60;;;;;;;17.94;85.90;101296.66;3616248;39;20308;-65
2023/09/29 00:35:24;;;;;;;11.50;3.90;;;;;;;18.06;86.20;101311.94;3618501;39;20079;-66
2023/09/29 00:37:51;;;;;;;11.55;4.20;;;;;;;17.98;85.29;101289.09;3616841;39;20049;-66
2023/09/29 00:40:17;;;;;;;7.65;3.95;;;;;;;18.12;85.25;101302.41;3615664;39;20058;-66
2023/09/29 00:42:44;;;;;;;7.38;4.30;;;;;;;18.15;85.19;101302.13;3616143;39;20128;-68
2023/09/29 00:45:11;;;;;;;7.40;3.70;;;;;;;18.17;84.78;101300.13;3617690;39;20053;-66
2023/09/29 00:47:38;;;;;;;8.63;3.70;;;;;;;18.19;84.48;101302.72;3617105;39;20053;-66
2023/09/29 00:50:11;;;;;;;6.70;3.63;;;;;;;18.21;84.03;101301.63;3617834;39;20313;-65
2023/09/29 00:52:42;;;;;;;7.53;4.05;;;;;;;18.22;84.17;101284.28;3618837;39;20051;-67
2023/09/29 00:55:13;;;;;;;8.77;3.92;;;;;;;18.23;84.19;101288.72;3615589;39;20051;-67
2023/09/29 00:57:47;;;;;;;6.75;3.83;;;;;;;18.25;83.74;101291.31;3617520;39;20392;-67
2023/09/29 01:00:21;;;;;;;8.88;3.65;;;;;;;18.26;83.98;101285.72;3616097;39;20051;-67
2023/09/29 01:02:48;;;;;;;;;;;;;;;18.26;83.66;101296.63;3616755;39;20042;-66
2023/09/29 01:05:14;;;;;;;8.65;4.15;;;;;;;18.15;83.57;101272.22;3617481;39;20003;-66
2023/09/29 01:07:43;;;;;;;9.55;3.95;;;;;;;18.30;83.17;101287.22;3616604;39;20115;-66
2023/09/29 01:10:15;;;;;;;8.48;3.75;;;;;;;18.31;83.07;101280.75;3604467;39;20313;-68
2023/09/29 01:12:41;;;;;;;6.10;3.28;;;;;;;18.31;83.45;101280.75;3618230;39;20293;-66
2023/09/29 01:15:13;;;;;;;5.43;3.28;;;;;;;18.32;82.66;101276.16;3617242;39;20050;-67
2023/09/29 01:17:42;;;;;;;7.78;3.70;;;;;;;18.32;82.79;101270.72;3615062;39;20046;-66
2023/09/29 01:20:16;;;;;;;5.82;3.38;;;;;;;18.33;82.20;101273.34;3618655;39;20043;-66
2023/09/29 01:22:47;;;;;;;7.85;3.20;;;;;;;18.35;82.81;101267.75;3616873;39;20054;-66
2023/09/29 01:25:17;;;;;;;5.40;3.03;;;;;;;18.38;82.62;101274.78;3615655;39;20061;-66
2023/09/29 01:27:43;;;;;;;6.43;3.30;;;;;;;18.38;82.34;101274.78;3618681;39;20059;-66
2023/09/29 01:30:13;;;;;;;6.65;3.28;;;;;;;18.39;82.60;101271.06;3615402;39;20087;-66
2023/09/29 01:32:41;;;;;;;7.72;3.25;;;;;;;18.35;82.57;101253.28;3618052;39;20068;-66
2023/09/29 01:35:08;;;;;;;7.07;3.10;;;;;;;18.21;82.44;101236.31;3615828;39;20411;-67
2023/09/29 01:37:34;;;;;;;7.13;3.13;;;;;;;18.40;82.74;101251.03;3616679;39;20063;-67
2023/09/29 01:40:00;;;;;;;6.88;3.50;;;;;;;18.39;81.71;101257.44;3616256;39;20059;-66
2023/09/29 01:42:26;;;;;;;9.02;3.40;;;;;;;18.39;81.63;101239.25;3618375;39;20090;-66
2023/09/29 01:44:51;;;;;;;6.75;3.20;;;;;;;18.41;82.04;101236.41;3610460;39;20062;-67
2023/09/29 01:47:17;;;;;;;6.97;3.20;;;;;;;18.39;81.87;101243.81;3620371;39;20059;-66
2023/09/29 01:49:43;;;;;;;7.00;3.22;;;;;;;18.40;81.70;101248.28;3618447;39;20347;-66
2023/09/29 01:52:08;;;;;;;6.35;2.90;;;;;;;18.40;81.16;101242.84;3616269;39;20077;-66
2023/09/29 01:54:35;;;;;;;7.05;3.00;;;;;;;18.40;80.92;101234.69;3618981;39;20058;-67
2023/09/29 01:57:01;;;;;;;5.47;3.00;;;;;;;18.41;81.05;101230.97;3615110;39;20323;-66
2023/09/29 01:59:28;;;;;;;5.20;3.10;;;;;;;18.43;81.13;101235.28;3617713;39;20051;-65
2023/09/29 02:01:54;;;;;;;4.45;2.80;;;;;;;18.43;80.08;101237.13;3617478;39;20045;-66
2023/09/29 02:04:20;;;;;;;5.78;2.75;;;;;;;18.42;80.23;101233.53;3608288;39;20119;-66
2023/09/29 02:06:45;;;;;;;5.32;2.88;;;;;;;18.40;80.48;101218.34;3615526;39;20047;-66
2023/09/29 02:09:11;;;;;;;5.65;3.10;;;;;;;18.41;79.81;101215.47;3617609;39;20049;-66
2023/09/29 02:11:41;;;;;;;5.65;3.00;;;;;;;18.40;79.40;101212.91;3616448;39;20318;-67
2023/09/29 02:14:06;;;;;;;4.93;2.97;;;;;;;18.45;79.19;101221.50;3608519;39;20054;-66
2023/09/29 02:16:35;;;;;;;7.93;2.72;;;;;;;18.14;79.52;101175.25;3615404;39;20299;-65
2023/09/29 02:19:02;;;;;;;3.42;2.60;;;;;;;18.46;79.84;101229.56;3616002;39;20063;-66
2023/09/29 02:21:32;;;;;;;5.32;2.60;;;;;;;18.46;79.52;101224.13;3614878;39;20042;-66
2023/09/29 02:23:58;;;;;;;4.35;2.70;;;;;;;18.45;79.34;101216.06;3605436;39;20069;-66
2023/09/29 02:26:28;;;;;;;5.95;2.75;;;;;;;18.44;79.14;101208.91;3616358;39;20059;-66
2023/09/29 02:28:55;;;;;;;4.55;2.72;;;;;;;18.44;78.99;101204.31;3616163;39;20050;-67
2023/09/29 02:31:22;;;;;;;6.68;2.70;;;;;;;18.46;78.71;101205.06;3615941;39;20050;-68
2023/09/29 02:33:47;;;;;;;5.07;2.90;;;;;;;18.11;78.96;101145.59;3619155;39;20050;-66
2023/09/29 02:36:13;;;;;;;3.83;2.58;;;;;;;18.49;79.03;101202.06;3613645;39;20058;-66
2023/09/29 02:38:39;;;;;;;7.97;3.03;;;;;;;18.30;78.64;101170.19;3613761;39;20054;-67
2023/09/29 02:41:07;;;;;;;4.63;3.20;;;;;;;18.48;78.56;101185.84;3615025;39;20127;-66
2023/09/29 02:43:33;;;;;;;4.65;2.58;;;;;;;18.53;77.93;101195.34;3615761;39;20373;-66
2023/09/29 02:45:59;;;;;;;3.28;2.50;;;;;;;18.53;77.93;101180.88;3616781;39;20049;-67
2023/09/29 02:48:27;;;;;;;5.35;2.72;;;;;;;18.56;77.85;101180.59;3619867;39;20058;-67
2023/09/29 02:50:53;;;;;;;5.25;2.80;;;;;;;18.56;78.35;101180.59;3614102;39;20082;-66
2023/09/29 02:53:18;;;;;;;4.60;2.53;;;;;;;18.37;77.93;101147.84;3614312;39;20093;-66
2023/09/29 02:55:45;;;;;;;4.82;2.53;;;;;;;18.53;78.36;101176.28;3615492;39;20051;-66
2023/09/29 02:58:12;;;;;;;3.80;2.30;;;;;;;18.56;78.76;101181.44;3616170;39;20049;-67
2023/09/29 03:00:40;;;;;;;4.18;2.42;;;;;;;18.59;78.16;101165.84;3616873;39;20050;-66
2023/09/29 03:03:06;;;;;;;3.50;2.30;;;;;;;18.58;78.79;101156.78;3616809;39;20063;-67
2023/09/29 03:05:35;;;;;;;4.78;2.70;;;;;;;18.60;78.28;101162.09;3613861;39;20054;-66
2023/09/29 03:08:01;;;;;;;5.20;2.83;;;;;;;18.62;78.46;101160.13;3614510;39;20070;-67
2023/09/29 03:10:29;;;;;;;3.40;2.53;;;;;;;18.63;78.65;101164.56;3615575;39;20306;-67
2023/09/29 03:12:56;;;;;;;4.70;2.58;;;;;;;18.62;78.93;101162.84;3616418;39;20042;-67
2023/09/29 03:15:23;;;;;;;4.43;2.40;;;;;;;18.66;79.41;101164.28;3616182;39;20392;-66
2023/09/29 03:17:49;;;;;;;6.50;3.08;;;;;;;18.64;79.32;101166.28;3617845;39;20054;-67
2023/09/29 03:20:16;;;;;;;4.57;2.38;;;;;;;18.67;79.05;101171.44;3615026;39;20127;-67
2023/09/29 03:22:45;;;;;;;4.30;2.40;;;;;;;18.67;79.50;101160.53;3614634;39;20057;-67
2023/09/29 03:25:16;;;;;;;3.67;2.30;;;;;;;18.68;79.73;101163.16;3613862;39;20073;-66
2023/09/29 03:27:43;;;;;;;7.20;2.60;;;;;;;18.30;79.45;101093.97;3609563;39;20143;-66
2023/09/29 03:30:10;;;;;;;4.55;2.35;;;;;;;18.47;79.82;101110.63;3617597;39;20262;-66
2023/09/29 03:32:35;;;;;;;5.47;3.88;;;;;;;18.66;80.16;101143.34;3616902;39;20401;-66
2023/09/29 03:35:01;;;;;;;10.63;7.85;;;;;;;18.66;80.03;101137.06;3618450;39;20066;-66
2023/09/29 03:37:31;;;;;;;6.22;4.03;;;;;;;18.64;80.77;101139.91;3617582;39;20398;-67
2023/09/29 03:39:57;;;;;;;4.05;2.97;;;;;;;18.65;80.84;101140.75;3619084;39;20065;-67
2023/09/29 03:42:22;;;;;;;4.90;2.60;;;;;;;18.63;81.01;101132.72;3618137;39;20050;-66
2023/09/29 03:44:48;;;;;;;4.43;2.40;;;;;;;18.64;81.38;101117.25;3617332;39;20063;-67
2023/09/29 03:47:14;;;;;;;4.35;2.45;;;;;;;18.61;80.92;101115.66;3617162;39;20059;-66
2023/09/29 03:49:43;;;;;;;4.75;2.50;;;;;;;18.39;81.55;101075.06;3617966;39;20135;-65
2023/09/29 03:52:08;;;;;;;2.85;2.53;;;;;;;18.58;81.49;101110.50;3616590;39;20059;-67
2023/09/29 03:54:34;;;;;;;4.93;2.30;;;;;;;18.55;82.11;101108.06;3617494;39;20055;-66
2023/09/29 03:57:04;;;;;;;3.05;2.40;;;;;;;18.56;81.97;101109.78;3612567;39;20059;-66
2023/09/29 03:59:30;;;;;;;4.28;2.50;;;;;;;18.54;82.75;101111.78;3616615;39;20131;-66
2023/09/29 04:01:56;;;;;;;4.22;2.45;;;;;;;18.53;82.87;101116.38;3615997;39;20070;-65
2023/09/29 04:04:21;;;;;;;5.47;2.58;;;;;;;18.54;82.64;101104.47;3616865;39;20053;-66
2023/09/29 04:06:47;;;;;;;5.80;2.78;;;;;;;18.53;82.68;101107.34;3605894;39;20047;-66
2023/09/29 04:09:13;;;;;;;5.35;2.80;;;;;;;18.52;82.87;101090.16;3618437;39;20095;-67
2023/09/29 04:11:41;;;;;;;3.90;2.97;;;;;;;18.52;83.79;101097.44;3618992;39;20057;-67
2023/09/29 04:14:07;;;;;;;4.55;2.70;;;;;;;18.52;83.41;101092.88;3615866;39;20066;-67
2023/09/29 04:16:33;;;;;;;4.28;2.55;;;;;;;18.55;84.04;101095.31;3618312;39;20301;-66
2023/09/29 04:18:59;;;;;;;3.28;2.30;;;;;;;18.55;83.31;101108.06;3617241;39;20054;-67
2023/09/29 04:21:25;;;;;;;5.45;2.72;;;;;;;18.57;83.51;101111.50;3618932;39;20073;-66
2023/09/29 04:23:51;;;;;;;6.55;2.67;;;;;;;18.54;84.31;101087.28;3616964;39;20049;-67
2023/09/29 04:26:19;;;;;;;5.53;2.50;;;;;;;18.58;84.40;101087.84;3609096;39;20074;-66
2023/09/29 04:28:46;;;;;;;5.65;2.67;;;;;;;18.52;84.00;101071.09;3617190;39;20051;-66
2023/09/29 04:31:16;;;;;;;7.28;2.55;;;;;;;18.62;84.44;101073.00;3618155;39;20046;-66
2023/09/29 04:33:42;;;;;;;4.65;2.70;;;;;;;18.64;83.94;101074.53;3616727;39;20066;-65
2023/09/29 04:36:08;;;;;;;4.63;2.67;;;;;;;18.65;84.37;101069.94;3616962;39;20434;-67
2023/09/29 04:38:35;;;;;;;4.03;2.45;;;;;;;18.70;84.03;101087.59;3615931;39;20486;-66
2023/09/29 04:41:01;;;;;;;5.53;2.60;;;;;;;18.75;84.36;101087.22;3607964;39;20051;-66
2023/09/29 04:43:28;;;;;;;3.47;2.33;;;;;;;18.76;84.49;101083.50;3616776;39;20047;-66
2023/09/29 04:45:55;;;;;;;4.65;2.80;;;;;;;18.78;84.44;101082.34;3615772;39;20346;-66
2023/09/29 04:48:21;;;;;;;3.67;2.47;;;;;;;18.78;84.46;101076.03;3615775;39;20066;-66
2023/09/29 04:50:47;;;;;;;4.30;2.60;;;;;;;18.77;84.25;101075.19;3615786;39;20046;-66
2023/09/29 04:53:12;;;;;;;4.28;2.80;;;;;;;18.51;84.79;101038.56;3614105;39;20325;-66
2023/09/29 04:55:38;;;;;;;4.65;2.58;;;;;;;18.82;84.95;101085.66;3615161;39;20051;-65
2023/09/29 04:58:04;;;;;;;3.28;2.50;;;;;;;18.84;85.30;101082.75;3616728;39;20354;-65
2023/09/29 05:00:30;;;;;;;3.13;2.60;;;;;;;18.84;84.76;101083.66;3613990;39;20147;-66
2023/09/29 05:02:55;;;;;;;3.40;2.42;;;;;;;18.85;85.34;101077.19;3615376;39;20068;-66
2023/09/29 05:05:21;;;;;;;3.08;2.40;;;;;;;18.87;84.76;101085.19;3616498;39;20067;-66
2023/09/29 05:07:46;;;;;;;3.33;2.40;;;;;;;18.90;84.98;101074.03;3604784;39;20050;-65
2023/09/29 05:10:15;;;;;;;4.80;2.40;;;;;;;18.92;85.35;101077.47;3615849;39;20059;-65
2023/09/29 05:12:43;;;;;;;5.60;2.40;;;;;;;18.92;85.64;101083.78;3613566;39;20047;-66
2023/09/29 05:15:10;;;;;;;4.20;2.47;;;;;;;18.92;85.41;101077.47;3615314;39;20050;-66
2023/09/29 05:17:35;;;;;;;6.20;2.40;;;;;;;18.93;85.71;101074.59;3614056;39;20424;-66
2023/09/29 05:20:02;;;;;;;2.97;2.33;;;;;;;18.90;85.60;101063.13;3608661;39;20066;-65
2023/09/29 05:22:28;;;;;;;7.72;2.83;;;;;;;18.95;85.36;101060.84;3616740;39;20052;-66
2023/09/29 05:24:54;;;;;;;3.53;2.40;;;;;;;18.96;85.68;101057.09;3614453;39;20050;-65
2023/09/29 05:27:20;;;;;;;5.40;2.40;;;;;;;18.99;85.78;101045.91;3621147;39;20309;-65
2023/09/29 05:29:46;;;;;;;5.60;2.60;;;;;;;19.01;86.29;101060.28;3614426;39;20051;-65
2023/09/29 05:32:12;;;;;;;3.38;2.75;;;;;;;18.99;85.63;101051.38;3611571;39;20053;-67
2023/09/29 05:34:37;;;;;;;3.67;2.33;;;;;;;18.99;86.58;101052.22;3615617;39;20059;-65
2023/09/29 05:37:04;;;;;;;5.35;2.50;;;;;;;19.02;86.66;101051.94;3616970;39;20389;-67
2023/09/29 05:39:30;;;;;;;3.92;2.17;;;;;;;19.04;86.97;101054.53;3612182;39;20376;-66
2023/09/29 05:41:56;;;;;;;3.65;2.53;;;;;;;19.08;86.08;101060.56;3619530;39;20070;-64
2023/09/29 05:44:22;;;;;;;5.10;2.42;;;;;;;19.11;86.51;101061.13;3609147;39;20126;-65
2023/09/29 05:46:47;;;;;;;5.72;2.65;;;;;;;19.13;86.44;101059.13;3614951;39;20066;-66
2023/09/29 05:49:13;;;;;;;4.65;2.30;;;;;;;19.11;86.84;101044.78;3617027;39;20051;-66
2023/09/29 05:51:39;;;;;;;4.97;2.22;;;;;;;19.18;86.71;101067.69;3618905;39;20054;-66
2023/09/29 05:54:04;;;;;;;3.33;2.20;;;;;;;18.85;86.50;101005.50;3616025;39;20050;-66
2023/09/29 05:56:31;;;;;;;5.88;2.60;;;;;;;19.27;86.03;101065.13;3604136;39;20313;-65
2023/09/29 05:59:00;;;;;;;3.72;2.42;;;;;;;19.26;85.79;101064.28;3618233;39;20095;-67
2023/09/29 06:01:26;;;;;;;3.53;2.28;;;;;;;19.33;86.02;101070.00;3616202;39;20059;-67
2023/09/29 06:03:52;;;;;;;4.07;2.50;;;;;;;19.34;86.23;101058.06;3614460;39;20075;-67
2023/09/29 06:06:18;;;;;;;4.25;2.40;;;;;;;19.39;85.94;101066.69;3618441;39;20043;-67
2023/09/29 06:08:45;;;;;;;3.25;2.35;;;;;;;19.41;86.58;101059.19;3621006;39;20461;-66
2023/09/29 06:11:12;;;;;;;4.32;2.40;;;;;;;19.45;86.16;101068.84;3617996;39;20054;-67
2023/09/29 06:13:42;;;;;;;4.65;2.40;;;;;;;19.48;85.77;101076.72;3614942;39;20057;-67
2023/09/29 06:16:08;;;;;;;5.65;2.28;;;;;;;19.51;86.33;101084.63;3617887;39;20090;-67
2023/09/29 06:18:34;;;;;;;4.95;2.58;;;;;;;19.53;85.64;101079.84;3620262;39;20367;-67
2023/09/29 06:21:00;;;;;;;3.75;2.38;;;;;;;19.58;86.09;101079.44;3619381;39;20051;-67
2023/09/29 06:23:26;;;;;;;4.68;2.03;;;;;;;19.38;85.91;101049.47;3620989;39;20061;-66
2023/09/29 06:26:02;;;;;;;3.50;2.25;;;;;;;19.64;86.13;101077.00;3617739;39;20056;-67
2023/09/29 06:28:28;;;;;;;3.38;2.15;;;;;;;19.68;86.18;101064.78;3617246;39;20058;-67
2023/09/29 06:30:58;;;;;;;4.15;2.38;;;;;;;19.59;86.00;101049.25;3616509;39;20062;-66
2023/09/29 06:33:25;;;;;;;2.47;1.90;;;;;;;19.77;85.78;101070.38;3618105;39;20046;-68
2023/09/29 06:35:52;;;;;;;4.28;1.90;;;;;;;19.80;85.58;101072.78;3615990;39;20411;-68
2023/09/29 06:38:18;;;;;;;3.00;2.00;;;;;;;19.86;85.41;101073.06;3618227;39;20104;-66
2023/09/29 06:40:44;;;;;;;2.53;2.10;;;;;;;19.92;85.43;101077.06;3615342;39;20090;-66
2023/09/29 06:43:10;;;;;;;2.85;2.05;;;;;;;19.95;84.95;101076.75;3607624;39;20042;-67
2023/09/29 06:45:36;;;;;;;5.28;1.95;;;;;;;20.01;84.98;101073.41;3615910;39;20046;-66
2023/09/29 06:48:04;;;;;;;2.58;1.92;;;;;;;20.07;84.80;101085.59;3618295;39;20055;-68
2023/09/29 06:50:30;;;;;;;4.35;1.90;;;;;;;20.12;84.56;101086.03;3618508;39;20292;-67
2023/09/29 06:52:56;;;;;;;3.17;2.05;;;;;;;20.14;84.72;101087.59;3616748;39;20270;-67
2023/09/29 06:55:21;;;;;;;2.20;2.00;;;;;;;20.17;84.63;101092.75;3617715;39;20050;-65
2023/09/29 06:57:48;;;;;;;3.53;1.92;;;;;;;20.20;84.38;101091.56;3617163;39;20395;-67
2023/09/29 07:00:14;;;;;;;2.70;1.80;;;;;;;20.24;84.31;101094.88;3618942;39;20090;-66
2023/09/29 07:02:39;;;;;;;2.78;1.83;;;;;;;20.11;84.18;101066.06;3609671;39;20381;-66
2023/09/29 07:05:05;;;;;;;3.38;1.83;;;;;;;20.25;84.14;101088.41;3622180;39;20050;-66
2023/09/29 07:07:31;;;;;;;3.30;1.90;;;;;;;20.25;83.87;101094.72;3614441;39;20059;-66
2023/09/29 07:09:58;;;;;;;2.13;1.88;;;;;;;20.26;84.13;101098.28;3615543;39;20063;-66
2023/09/29 07:12:24;;;;;;;3.33;1.88;;;;;;;20.27;83.90;101094.59;3613814;39;20049;-66
2023/09/29 07:14:51;;;;;;;3.55;1.88;;;;;;;20.31;83.68;101093.25;3613933;39;20047;-66
2023/09/29 07:17:17;;;;;;;2.85;2.05;;;;;;;20.28;83.53;101083.50;3615712;39;20053;-67
2023/09/29 07:19:43;;;;;;;4.15;2.10;;;;;;;20.32;83.74;101086.78;3613021;39;20046;-67
2023/09/29 07:22:09;;;;;;;3.92;2.20;;;;;;;20.40;82.87;101093.19;3614725;39;20051;-66
2023/09/29 07:24:35;;;;;;;2.92;2.05;;;;;;;20.43;82.82;101089.31;3613078;39;20069;-66
2023/09/29 07:27:00;;;;;;;3.05;2.05;;;;;;;20.49;82.92;101098.75;3616862;39;20061;-66
2023/09/29 07:29:26;;;;;;;3.30;1.98;;;;;;;20.55;82.64;101101.78;3616730;39;20307;-66
2023/09/29 07:31:52;;;;;;;5.15;2.20;;;;;;;20.65;82.08;101107.19;3616457;39;20042;-66
2023/09/29 07:34:17;;;;;;;4.68;1.88;;;;;;;20.79;81.53;101103.06;3611599;39;20374;-66
2023/09/29 07:36:45;;;;;;;3.17;2.00;;;;;;;20.92;80.89;101109.00;3614104;39;20071;-66
2023/09/29 07:39:15;;;;;;;3.00;1.95;;;;;;;21.03;80.17;101106.03;3614718;39;20113;-67
2023/09/29 07:41:41;;;;;;;6.38;2.17;;;;;;;21.13;79.60;101105.97;3613934;39;20070;-66
2023/09/29 07:44:08;;;;;;;3.80;1.95;;;;;;;21.22;79.25;101112.38;3616289;39;20074;-66
2023/09/29 07:46:36;;;;;;;3.22;2.00;;;;;;;21.32;78.82;101110.41;3616383;39;20322;-67
2023/09/29 07:49:02;;;;;;;2.92;1.92;;;;;;;21.37;78.19;101104.47;3621044;39;20051;-66
2023/09/29 07:51:29;;;;;;;2.97;1.90;;;;;;;21.59;77.22;101112.19;3614522;39;20054;-65
2023/09/29 07:53:57;;;;;;;2.72;1.83;;;;;;;21.73;76.10;101116.22;3618470;39;20336;-65
2023/09/29 07:56:23;;;;;;;2.45;1.67;;;;;;;21.85;75.64;101112.22;3615697;39;20300;-65
2023/09/29 07:58:49;;;;;;;5.40;2.00;;;;;;;21.96;74.98;101124.75;3618484;39;20058;-65
2023/09/29 08:01:15;;;;;;;2.45;1.90;;;;;;;22.04;74.60;101127.53;3618618;39;20062;-66
2023/09/29 08:03:42;;;;;;;3.53;1.73;;;;;;;22.10;73.83;101121.41;3612841;39;20304;-66
2023/09/29 08:06:10;;;;;;;2.67;1.90;;;;;;;22.21;74.04;101131.25;3613004;39;20049;-66
2023/09/29 08:08:36;;;;;;;5.53;2.60;;;;;;;22.26;73.34;101120.66;3614626;39;20311;-66
2023/09/29 08:11:02;;;;;;;3.97;2.40;;;;;;;22.32;73.77;101133.69;3616300;39;20055;-66
2023/09/29 08:13:28;;;;;;;5.22;2.58;;;;;;;22.28;73.12;101120.50;3614907;39;20060;-67
2023/09/29 08:15:53;;;;;;;4.28;2.08;;;;;;;22.34;72.09;101137.13;3621232;39;20066;-66
2023/09/29 08:18:20;;;;;;;4.22;2.10;;;;;;;22.38;72.86;101135.78;3608795;39;20059;-65
2023/09/29 08:20:46;;;;;;;3.72;1.80;;;;;;;22.37;73.02;101138.69;3615802;39;20084;-66
2023/09/29 08:23:12;;;;;;;3.03;1.90;;;;;;;22.48;72.56;101152.94;3616242;39;20047;-66
2023/09/29 08:25:38;;;;;;;2.67;2.05;;;;;;;22.51;72.46;101153.66;3616175;39;20300;-66
2023/09/29 08:28:05;;;;;;;4.03;2.10;;;;;;;22.55;71.53;101155.03;3618551;39;20516;-66
2023/09/29 08:30:32;;;;;;;8.30;2.40;;;;;;;22.60;71.91;101166.34;3619488;39;20049;-66
2023/09/29 08:32:57;;;;;;;4.43;2.05;;;;;;;22.65;71.81;101169.47;3617483;39;20071;-66
2023/09/29 08:35:23;;;;;;;3.90;1.83;;;;;;;22.70;71.22;101172.56;3617676;39;20042;-66
2023/09/29 08:37:49;;;;;;;4.13;1.98;;;;;;;22.70;70.97;101178.03;3616462;39;20047;-66
2023/09/29 08:40:19;;;;;;;2.42;1.90;;;;;;;22.63;70.63;101168.78;3617328;39;20301;-65
2023/09/29 08:42:51;;;;;;;4.55;2.10;;;;;;;22.60;71.27;101174.56;3617886;39;20046;-65
2023/09/29 08:45:19;;;;;;;2.60;2.10;;;;;;;22.55;72.01;101176.94;3617456;39;20057;-67
2023/09/29 08:47:51;;;;;;;3.78;2.20;;;;;;;22.52;71.10;101180.00;3616352;39;20059;-66
2023/09/29 08:50:17;;;;;;;4.70;2.60;;;;;;;22.46;71.14;101176.91;3620002;39;20061;-66
2023/09/29 08:52:45;;;;;;;6.45;2.40;;;;;;;22.45;71.30;101193.50;3615307;39;20086;-65
2023/09/29 08:55:15;;;;;;;4.53;2.42;;;;;;;22.43;71.83;101193.69;3617742;39;20371;-66
2023/09/29 08:57:45;;;;;;;4.43;2.40;;;;;;;22.44;71.33;101189.91;3620199;39;20084;-66
2023/09/29 09:00:15;;;;;;;4.55;2.38;;;;;;;22.48;71.21;101185.81;3615130;39;20061;-66
2023/09/29 09:02:44;;;;;;;5.53;2.50;;;;;;;22.51;71.25;101183.78;3616907;39;20208;-65
2023/09/29 09:05:12;;;;;;;6.93;2.50;;;;;;;22.53;71.14;101182.59;3615624;39;20158;-64
2023/09/29 09:07:43;;;;;;;5.50;2.20;;;;;;;22.52;70.75;101190.97;3604887;39;20085;-64
2023/09/29 09:10:11;;;;;;;4.88;2.30;;;;;;;22.54;70.68;101188.94;3615332;39;20061;-66
2023/09/29 09:12:40;;;;;;;6.97;3.05;;;;;;;22.36;70.70;101165.22;3615653;39;20055;-66
2023/09/29 09:15:08;;;;;;;6.25;3.00;;;;;;;22.54;71.46;101199.91;3614687;39;20073;-66
2023/09/29 09:17:36;;;;;;;5.03;2.63;;;;;;;22.56;71.00;101200.59;3614820;39;20574;-65
2023/09/29 09:20:02;;;;;;;3.88;2.55;;;;;;;22.55;70.86;101204.34;3615639;39;20120;-64
2023/09/29 09:22:32;;;;;;;4.38;2.20;;;;;;;22.53;71.11;101211.88;3616287;39;20412;-65
2023/09/29 09:25:08;;;;;;;4.80;2.20;;;;;;;22.49;71.28;101216.84;3607339;39;20047;-66
2023/09/29 09:27:42;;;;;;;2.92;2.20;;;;;;;22.42;72.27;101210.28;3605323;39;20079;-65
2023/09/29 09:30:23;;;;;;;5.55;2.35;;;;;;;22.45;72.79;101216.31;3615804;39;20128;-65
2023/09/29 09:32:49;;;;;;;4.90;2.47;;;;;;;22.50;71.42;101213.06;3616729;39;20051;-66
2023/09/29 09:35:29;;;;;;;4.30;2.40;;;;;;;22.52;71.68;101221.09;3615038;39;20043;-65
2023/09/29 09:37:57;;;;;;;7.40;2.65;;;;;;;22.56;71.30;101217.03;3614035;39;20054;-67
2023/09/29 09:40:26;;;;;;;5.85;2.65;;;;;;;22.58;70.93;101215.88;3616638;39;20440;-64
2023/09/29 09:43:00;;;;;;;3.30;2.20;;;;;;;22.52;71.27;101219.25;3619584;39;20131;-65
2023/09/29 09:45:39;;;;;;;4.22;2.30;;;;;;;22.50;71.23;101228.66;3616185;39;20043;-64
2023/09/29 09:48:15;;;;;;;4.78;2.45;;;;;;;22.42;71.52;101229.44;3617180;39;20046;-64
2023/09/29 09:50:45;;;;;;;5.85;2.75;;;;;;;22.42;72.29;101234.91;3615854;39;20394;-65
2023/09/29 09:53:13;;;;;;;4.90;2.60;;;;;;;22.34;72.72;101226.69;3617271;39;20119;-66
2023/09/29 09:55:45;;;;;;;5.60;2.67;;;;;;;22.39;72.80;101247.09;3615764;39;20385;-65
2023/09/29 09:58:16;;;;;;;4.82;2.63;;;;;;;22.33;72.72;101245.00;3616962;39;20050;-66
2023/09/29 10:00:52;;;;;;;3.58;2.30;;;;;;;22.31;73.42;101246.16;3613672;39;20051;-66
2023/09/29 10:03:21;;;;;;;4.65;2.40;;;;;;;22.12;73.40;101233.50;3613822;39;20297;-65
2023/09/29 10:05:53;;;;;;;3.30;2.20;;;;;;;22.23;74.17;101252.44;3619975;39;20126;-64
2023/09/29 10:08:29;;;;;;;6.15;3.00;;;;;;;22.19;74.74;101253.78;3616001;39;20051;-65
2023/09/29 10:11:12;;;;;;;3.92;2.20;;;;;;;22.17;74.68;101253.06;3613487;39;21303;-66
2023/09/29 10:13:42;;;;;;;4.88;2.22;;;;;;;22.16;74.17;101252.22;3613622;39;20155;-65
2023/09/29 10:16:19;;;;;;;4.95;2.47;;;;;;;22.17;74.56;101258.56;3615676;39;20374;-65
2023/09/29 10:18:56;;;;;;;4.13;2.30;;;;;;;22.14;73.58;101264.34;3613085;39;20066;-66
2023/09/29 10:21:22;;;;;;;4.22;2.65;;;;;;;22.12;73.71;101258.16;3616232;39;20091;-65
2023/09/29 10:23:50;;;;;;;7.40;2.50;;;;;;;22.11;73.95;101261.94;3613663;39;20098;-65
2023/09/29 10:26:19;;;;;;;4.70;2.55;;;;;;;22.12;74.17;101249.94;3615797;39;20046;-65
2023/09/29 10:28:45;;;;;;;6.10;2.67;;;;;;;22.11;74.08;101254.56;3612898;39;21343;-64
2023/09/29 10:31:18;;;;;;;5.32;2.95;;;;;;;22.15;74.25;101252.38;3615792;39;20055;-64
2023/09/29 10:33:56;;;;;;;3.85;2.60;;;;;;;22.16;73.95;101273.28;3615424;39;20403;-64
2023/09/29 10:36:31;;;;;;;8.38;2.80;;;;;;;22.07;74.08;101255.03;3613370;39;20046;-65
2023/09/29 10:38:59;;;;;;;6.32;2.60;;;;;;;22.10;74.54;101265.66;3600588;39;20131;-66
2023/09/29 10:41:28;;;;;;;4.68;2.45;;;;;;;22.12;74.67;101275.44;3613716;39;20508;-64
2023/09/29 10:44:00;;;;;;;4.03;2.40;;;;;;;22.11;74.57;101267.41;3618104;39;20055;-65
2023/09/29 10:46:25;;;;;;;6.80;2.50;;;;;;;22.14;75.17;101265.19;3614929;39;20059;-65
2023/09/29 10:48:53;;;;;;;7.22;3.13;;;;;;;22.15;74.91;101268.78;3615774;39;20066;-65
2023/09/29 10:51:28;;;;;;;7.95;2.80;;;;;;;22.19;75.09;101275.69;3618697;39;20438;-64
2023/09/29 10:53:55;;;;;;;4.43;2.47;;;;;;;22.18;74.60;101276.72;3614663;39;20095;-65
2023/09/29 10:56:25;;;;;;;4.03;2.60;;;;;;;22.15;74.94;101282.47;3615168;39;20305;-65
2023/09/29 10:58:53;;;;;;;5.13;2.38;;;;;;;22.12;74.61;101289.13;3613909;39;21954;-65
2023/09/29 11:01:32;;;;;;;4.32;2.00;;;;;;;22.10;74.37;101301.25;3612848;39;20100;-65
2023/09/29 11:03:58;;;;;;;4.30;2.25;;;;;;;22.14;74.92;101284.38;3603636;39;20046;-65
2023/09/29 11:06:24;;;;;;;4.20;2.00;;;;;;;22.29;74.53;101286.53;3613381;39;20047;-65
2023/09/29 11:08:57;;;;;;;6.72;1.80;;;;;;;22.57;73.77;101295.47;3613410;39;20471;-65
2023/09/29 11:11:27;;;;;;;2.47;1.70;;;;;;;22.69;72.82;101286.81;3608997;39;20046;-65
2023/09/29 11:13:57;;;;;;;4.03;1.90;;;;;;;22.80;72.13;101298.50;3612800;39;20063;-65
2023/09/29 11:16:27;;;;;;;3.90;2.13;;;;;;;22.87;72.55;101302.34;3617280;39;20070;-65
2023/09/29 11:18:56;;;;;;;3.40;2.15;;;;;;;22.96;71.97;101309.59;3616872;39;20059;-65
2023/09/29 11:21:36;;;;;;;3.05;1.92;;;;;;;23.02;72.07;101306.19;3620933;39;20039;-65
2023/09/29 11:24:13;;;;;;;2.30;1.83;;;;;;;22.90;73.19;101293.78;3614963;39;20855;-65
2023/09/29 11:26:48;;;;;;;4.93;2.00;;;;;;;22.92;73.47;101313.66;3610904;39;20074;-64